createdAt,value
2019-04-14T00:03:43.573Z,99.90
2019-04-14T00:09:27.947Z,99.90
2019-04-14T00:12:16.826Z,99.90
2019-04-14T00:15:20.130Z,99.90
2019-04-14T00:17:56.781Z,99.90
2019-04-14T00:20:46.940Z,99.90
2019-04-14T00:23:36.971Z,99.90
2019-04-14T00:29:42.155Z,99.90
2019-04-14T00:35:49.588Z,99.90
2019-04-14T00:38:43.412Z,99.90
2019-04-14T00:41:55.530Z,99.90
2019-04-14T00:48:10.908Z,99.90
2019-04-14T00:50:56.461Z,99.90
2019-04-14T00:53:45.025Z,99.90
2019-04-14T00:56:25.918Z,99.90
2019-04-14T00:59:07.400Z,99.90
2019-04-14T01:01:48.475Z,99.90
2019-04-14T01:04:30.174Z,99.90
2019-04-14T01:07:12.973Z,99.90
2019-04-14T01:09:55.367Z,99.90
2019-04-14T01:12:36.981Z,99.90
2019-04-14T01:15:17.887Z,99.90
2019-04-14T01:17:59.299Z,99.90
2019-04-14T01:20:40.696Z,99.90
2019-04-14T01:23:21.592Z,99.90
2019-04-14T01:26:02.927Z,99.90
2019-04-14T01:28:44.405Z,99.90
2019-04-14T01:34:45.557Z,99.90
2019-04-14T01:37:26.929Z,99.90
2019-04-14T01:40:08.099Z,99.90
2019-04-14T01:42:48.842Z,99.90
2019-04-14T01:45:30.216Z,99.90
2019-04-14T01:48:10.940Z,99.90
2019-04-14T01:51:11.324Z,99.90
2019-04-14T01:54:10.940Z,99.90
2019-04-14T01:57:11.403Z,99.90
2019-04-14T01:59:52.963Z,99.90
2019-04-14T02:02:35.585Z,99.90
2019-04-14T02:05:16.912Z,99.90
2019-04-14T02:07:58.447Z,99.90
2019-04-14T02:10:39.670Z,99.90
2019-04-14T02:13:20.351Z,99.90
2019-04-14T02:16:21.057Z,99.90
2019-04-14T02:19:00.224Z,99.90
2019-04-14T02:21:49.916Z,99.90
2019-04-14T02:24:39.604Z,99.90
2019-04-14T02:27:28.029Z,99.90
2019-04-14T02:30:20.867Z,99.90
2019-04-14T02:36:36.262Z,99.90
2019-04-14T02:39:20.963Z,99.90
2019-04-14T02:42:20.253Z,99.90
2019-04-14T02:44:53.549Z,99.90
2019-04-14T02:48:06.680Z,99.90
2019-04-14T02:50:30.608Z,99.90
2019-04-14T02:53:23.930Z,99.90
2019-04-14T02:56:43.443Z,99.90
2019-04-14T02:58:52.464Z,99.90
2019-04-14T03:01:29.615Z,99.90
2019-04-14T03:04:16.992Z,99.90
2019-04-14T03:06:55.908Z,99.90
2019-04-14T03:09:42.340Z,99.90
2019-04-14T03:12:28.025Z,99.90
2019-04-14T03:15:07.256Z,99.90
2019-04-14T03:21:24.586Z,99.90
2019-04-14T03:24:12.786Z,99.90
2019-04-14T03:26:59.429Z,99.90
2019-04-14T03:29:50.370Z,99.90
2019-04-14T03:41:45.197Z,99.90
2019-04-14T03:47:08.678Z,99.90
2019-04-14T03:53:03.341Z,99.90
2019-04-14T03:55:20.470Z,99.90
2019-04-14T03:57:56.261Z,99.90
2019-04-14T04:00:46.466Z,99.90
2019-04-14T04:03:36.834Z,99.90
2019-04-14T04:06:26.988Z,99.90
2019-04-14T04:09:17.119Z,99.90
2019-04-14T04:12:07.498Z,99.90
2019-04-14T04:14:57.497Z,99.90
2019-04-14T04:21:50.925Z,99.90
2019-04-14T04:28:02.368Z,99.90
2019-04-14T04:30:55.882Z,99.90
2019-04-14T04:34:05.394Z,99.90
2019-04-14T04:37:08.294Z,99.90
2019-04-14T04:39:58.585Z,99.90
2019-04-14T04:42:48.291Z,99.90
2019-04-14T04:45:37.206Z,99.90
2019-04-14T04:48:26.418Z,99.90
2019-04-14T04:51:16.069Z,99.90
2019-04-14T04:54:05.891Z,99.90
2019-04-14T04:56:47.806Z,99.90
2019-04-14T04:59:29.845Z,99.90
2019-04-14T05:02:11.536Z,99.90
2019-04-14T05:04:52.650Z,99.90
2019-04-14T05:07:34.157Z,99.90
2019-04-14T05:10:34.985Z,99.90
2019-04-14T05:13:20.766Z,99.90
2019-04-14T05:16:04.093Z,99.90
2019-04-14T05:22:04.946Z,99.90
2019-04-14T05:24:46.220Z,99.90
2019-04-14T05:27:27.834Z,99.90
2019-04-14T05:30:09.022Z,99.90
2019-04-14T05:33:09.598Z,99.90
2019-04-14T05:35:40.119Z,99.90
2019-04-14T05:38:31.837Z,99.90
2019-04-14T05:41:20.039Z,99.90
2019-04-14T05:43:54.825Z,99.90
2019-04-14T05:46:20.760Z,99.90
2019-04-14T05:48:51.341Z,99.90
2019-04-14T05:51:41.472Z,99.90
2019-04-14T05:54:12.477Z,99.90
2019-04-14T05:56:54.326Z,99.90
2019-04-14T05:59:35.702Z,99.90
2019-04-14T06:02:05.164Z,99.90
2019-04-14T06:04:35.262Z,99.90
2019-04-14T06:07:05.199Z,99.90
2019-04-14T06:09:34.561Z,99.90
2019-04-14T06:12:03.953Z,99.90
2019-04-14T06:14:33.299Z,99.80
2019-04-14T06:17:02.691Z,99.90
2019-04-14T06:19:37.959Z,99.90
2019-04-14T06:22:04.083Z,99.90
2019-04-14T06:24:52.842Z,99.90
2019-04-14T06:27:22.285Z,99.90
2019-04-14T06:29:53.588Z,99.90
2019-04-14T06:32:42.246Z,99.90
2019-04-14T06:38:19.624Z,99.90
2019-04-14T06:40:54.529Z,99.60
2019-04-14T06:43:48.763Z,99.80
2019-04-14T06:46:14.014Z,99.90
2019-04-14T06:48:43.401Z,99.90
2019-04-14T06:51:12.761Z,99.80
2019-04-14T06:53:42.605Z,99.90
2019-04-14T06:56:11.998Z,99.90
2019-04-14T06:59:00.806Z,99.90
2019-04-14T07:01:48.930Z,99.50
2019-04-14T07:04:37.369Z,99.10
2019-04-14T07:07:26.199Z,99.00
2019-04-14T07:10:14.653Z,98.60
2019-04-14T07:13:04.385Z,98.10
2019-04-14T07:15:52.839Z,98.50
2019-04-14T07:18:41.758Z,97.50
2019-04-14T07:21:30.235Z,97.50
2019-04-14T07:24:18.709Z,98.50
2019-04-14T07:26:48.476Z,98.60
2019-04-14T07:29:17.865Z,99.20
2019-04-14T07:32:25.263Z,98.10
2019-04-14T07:38:49.696Z,96.90
2019-04-14T07:41:45.204Z,97.20
2019-04-14T07:44:52.886Z,97.50
2019-04-14T07:48:02.501Z,97.00
2019-04-14T07:51:09.873Z,97.10
2019-04-14T07:54:02.070Z,95.00
2019-04-14T07:57:02.696Z,94.20
2019-04-14T08:00:11.626Z,93.30
2019-04-14T08:02:59.978Z,92.80
2019-04-14T08:05:48.426Z,91.60
2019-04-14T08:08:37.286Z,90.90
2019-04-14T08:11:25.867Z,90.90
2019-04-14T08:14:14.337Z,90.80
2019-04-14T08:17:02.784Z,92.20
2019-04-14T08:19:32.571Z,90.20
2019-04-14T08:22:21.016Z,90.70
2019-04-14T08:24:50.425Z,89.80
2019-04-14T08:27:38.874Z,90.50
2019-04-14T08:30:27.348Z,89.40
2019-04-14T08:32:56.719Z,89.00
2019-04-14T08:35:26.105Z,89.30
2019-04-14T08:37:55.461Z,86.60
2019-04-14T08:40:43.948Z,87.50
2019-04-14T08:43:31.974Z,82.90
2019-04-14T08:46:32.665Z,82.70
2019-04-14T08:49:21.026Z,82.70
2019-04-14T08:51:57.278Z,80.50
2019-04-14T08:54:45.609Z,81.30
2019-04-14T08:57:45.270Z,81.80
2019-04-14T09:00:33.766Z,80.40
2019-04-14T09:03:22.087Z,79.30
2019-04-14T09:06:10.407Z,79.40
2019-04-14T09:12:15.784Z,77.60
2019-04-14T09:14:55.945Z,79.40
2019-04-14T09:17:14.386Z,77.60
2019-04-14T09:20:02.857Z,77.80
2019-04-14T09:22:51.321Z,79.20
2019-04-14T09:25:40.198Z,79.30
2019-04-14T09:28:28.648Z,78.60
2019-04-14T09:31:17.500Z,78.30
2019-04-14T09:34:05.981Z,73.70
2019-04-14T09:36:55.015Z,73.60
2019-04-14T09:39:43.498Z,69.90
2019-04-14T09:42:12.897Z,70.90
2019-04-14T09:45:01.524Z,71.50
2019-04-14T09:47:49.960Z,71.10
2019-04-14T09:50:38.825Z,72.00
2019-04-14T09:53:27.413Z,69.70
2019-04-14T09:56:09.210Z,70.80
2019-04-14T10:02:09.225Z,69.40
2019-04-14T10:04:50.054Z,70.80
2019-04-14T10:07:31.627Z,70.50
2019-04-14T10:10:13.084Z,71.10
2019-04-14T10:12:53.746Z,71.20
2019-04-14T10:15:34.522Z,71.00
2019-04-14T10:18:16.111Z,71.90
2019-04-14T10:20:56.826Z,70.80
2019-04-14T10:23:39.578Z,70.70
2019-04-14T10:26:21.190Z,69.00
2019-04-14T10:29:02.099Z,70.20
2019-04-14T10:31:31.546Z,69.70
2019-04-14T10:34:37.929Z,70.00
2019-04-14T10:37:26.454Z,68.90
2019-04-14T10:40:14.951Z,69.20
2019-04-14T10:43:03.779Z,66.90
2019-04-14T10:45:52.315Z,66.90
2019-04-14T10:48:40.907Z,66.90
2019-04-14T10:51:30.803Z,66.00
2019-04-14T10:54:00.723Z,64.50
2019-04-14T10:56:41.351Z,63.00
2019-04-14T10:59:22.064Z,59.80
2019-04-14T11:02:03.129Z,58.10
2019-04-14T11:04:43.959Z,61.50
2019-04-14T11:07:28.454Z,60.10
2019-04-14T11:13:14.734Z,57.30
2019-04-14T11:15:55.745Z,56.30
2019-04-14T11:18:37.494Z,56.00
2019-04-14T11:21:19.280Z,55.90
2019-04-14T11:24:00.671Z,56.20
2019-04-14T11:26:43.356Z,54.30
2019-04-14T11:29:24.876Z,54.90
2019-04-14T11:38:24.377Z,54.10
2019-04-14T11:41:10.354Z,54.30
2019-04-14T11:43:51.222Z,54.30
2019-04-14T11:49:40.753Z,53.10
2019-04-14T11:52:21.390Z,51.70
2019-04-14T11:55:02.408Z,50.60
2019-04-14T11:57:43.527Z,50.10
2019-04-14T12:00:46.584Z,49.90
2019-04-14T12:03:46.491Z,48.00
2019-04-14T12:06:46.832Z,48.80
2019-04-14T12:09:37.004Z,47.30
2019-04-14T12:12:19.032Z,47.90
2019-04-14T12:15:00.077Z,46.20
2019-04-14T12:17:41.205Z,46.80
2019-04-14T12:20:22.791Z,45.70
2019-04-14T12:23:04.387Z,46.10
2019-04-14T12:25:46.245Z,45.80
2019-04-14T12:28:28.415Z,44.80
2019-04-14T12:31:10.803Z,44.50
2019-04-14T12:33:52.318Z,44.40
2019-04-14T12:36:33.900Z,44.50
2019-04-14T12:39:15.177Z,43.90
2019-04-14T12:42:18.514Z,44.10
2019-04-14T12:45:18.329Z,43.80
2019-04-14T12:48:18.712Z,43.20
2019-04-14T12:51:20.492Z,42.20
2019-04-14T12:53:49.604Z,42.00
2019-04-14T12:56:30.944Z,41.60
2019-04-14T12:59:18.073Z,40.50
2019-04-14T13:05:12.937Z,39.40
2019-04-14T13:07:53.755Z,39.40
2019-04-14T13:10:35.672Z,38.80
2019-04-14T13:13:17.168Z,37.90
2019-04-14T13:15:58.788Z,37.50
2019-04-14T13:18:39.594Z,37.40
2019-04-14T13:21:20.197Z,37.60
2019-04-14T13:24:01.143Z,37.40
2019-04-14T13:26:42.795Z,38.40
2019-04-14T13:29:22.432Z,37.50
2019-04-14T13:32:11.210Z,37.60
2019-04-14T13:34:59.978Z,37.00
2019-04-14T13:37:48.462Z,36.90
2019-04-14T13:40:36.942Z,37.70
2019-04-14T13:43:25.424Z,37.20
2019-04-14T13:46:13.895Z,37.40
2019-04-14T13:49:02.427Z,38.20
2019-04-14T13:54:21.041Z,38.90
2019-04-14T13:57:02.344Z,39.40
2019-04-14T13:59:42.959Z,40.20
2019-04-14T14:02:24.460Z,40.30
2019-04-14T14:05:06.042Z,39.60
2019-04-14T14:07:47.174Z,39.90
2019-04-14T14:10:17.279Z,40.40
2019-04-14T14:13:24.704Z,41.20
2019-04-14T14:16:32.721Z,40.70
2019-04-14T14:23:15.811Z,42.00
2019-04-14T14:26:07.626Z,42.00
2019-04-14T14:28:56.226Z,42.60
2019-04-14T14:31:44.697Z,42.90
2019-04-14T14:34:33.209Z,43.10
2019-04-14T14:37:22.395Z,42.40
2019-04-14T14:40:11.883Z,42.10
2019-04-14T14:43:00.748Z,41.70
2019-04-14T14:45:49.069Z,42.30
2019-04-14T14:48:51.598Z,42.30
2019-04-14T14:51:58.986Z,41.90
2019-04-14T14:54:47.474Z,41.80
2019-04-14T14:57:29.142Z,41.30
2019-04-14T15:00:16.899Z,40.80
2019-04-14T15:02:46.328Z,41.20
2019-04-14T15:05:46.844Z,41.60
2019-04-14T15:08:06.046Z,41.60
2019-04-14T15:10:54.518Z,42.70
2019-04-14T15:13:43.000Z,43.00
2019-04-14T15:16:31.598Z,43.10
2019-04-14T15:19:20.421Z,43.90
2019-04-14T15:27:45.051Z,42.90
2019-04-14T15:30:33.860Z,43.80
2019-04-14T15:33:22.730Z,43.30
2019-04-14T15:36:11.486Z,43.40
2019-04-14T15:38:59.986Z,44.20
2019-04-14T15:41:48.462Z,45.30
2019-04-14T15:44:18.182Z,45.90
2019-04-14T15:47:06.657Z,45.30
2019-04-14T15:49:55.146Z,45.20
2019-04-14T15:52:43.616Z,43.80
2019-04-14T15:55:31.328Z,44.50
2019-04-14T15:58:19.964Z,43.70
2019-04-14T16:01:27.658Z,43.90
2019-04-14T16:04:16.254Z,43.50
2019-04-14T16:07:23.934Z,44.70
2019-04-14T16:14:01.974Z,45.40
2019-04-14T16:17:10.088Z,45.50
2019-04-14T16:20:17.564Z,45.50
2019-04-14T16:23:06.298Z,45.70
2019-04-14T16:29:13.600Z,45.80
2019-04-14T16:32:21.009Z,45.40
2019-04-14T16:35:13.709Z,45.70
2019-04-14T16:38:02.215Z,45.60
2019-04-14T16:40:51.350Z,45.50
2019-04-14T16:43:40.767Z,45.40
2019-04-14T16:46:29.459Z,45.90
2019-04-14T16:49:18.778Z,46.20
2019-04-14T16:52:26.154Z,46.20
2019-04-14T16:55:29.702Z,46.80
2019-04-14T16:58:30.717Z,47.00
2019-04-14T17:01:15.962Z,47.30
2019-04-14T17:03:57.057Z,47.20
2019-04-14T17:06:37.966Z,47.00
2019-04-14T17:09:19.447Z,47.30
2019-04-14T17:12:01.140Z,46.80
2019-04-14T17:14:48.158Z,47.70
2019-04-14T17:20:46.455Z,48.00
2019-04-14T17:23:46.732Z,48.30
2019-04-14T17:26:46.673Z,48.30
2019-04-14T17:29:47.248Z,48.80
2019-04-14T17:32:47.280Z,49.10
2019-04-14T17:35:47.687Z,49.30
2019-04-14T17:38:40.252Z,50.20
2019-04-14T17:44:28.892Z,51.50
2019-04-14T17:47:26.202Z,52.00
2019-04-14T17:53:40.724Z,52.60
2019-04-14T17:56:29.432Z,52.90
2019-04-14T17:59:36.801Z,53.10
2019-04-14T18:02:44.284Z,53.20
2019-04-14T18:12:00.287Z,54.80
2019-04-14T18:15:07.676Z,55.30
2019-04-14T18:18:15.333Z,56.00
2019-04-14T18:21:02.913Z,56.00
2019-04-14T18:23:32.624Z,56.50
2019-04-14T18:26:21.109Z,57.30
2019-04-14T18:29:28.474Z,57.30
2019-04-14T18:32:35.842Z,57.90
2019-04-14T18:35:43.221Z,58.10
2019-04-14T18:38:31.794Z,58.80
2019-04-14T18:44:50.852Z,59.20
2019-04-14T18:47:46.670Z,59.40
2019-04-14T18:50:43.676Z,60.10
2019-04-14T18:53:17.349Z,60.50
2019-04-14T18:56:09.956Z,61.10
2019-04-14T18:58:58.285Z,61.80
2019-04-14T19:01:47.180Z,62.70
2019-04-14T19:04:35.927Z,63.10
2019-04-14T19:07:24.420Z,63.10
2019-04-14T19:10:12.880Z,63.60
2019-04-14T19:13:20.261Z,64.10
2019-04-14T19:16:38.701Z,64.60
2019-04-14T19:19:00.661Z,65.50
2019-04-14T19:21:31.539Z,66.00
2019-04-14T19:24:20.011Z,66.50
2019-04-14T19:27:08.786Z,67.00
2019-04-14T19:29:38.144Z,67.30
2019-04-14T19:32:26.971Z,67.40
2019-04-14T19:35:15.430Z,67.80
2019-04-14T19:38:04.023Z,67.80
2019-04-14T19:40:52.481Z,67.90
2019-04-14T19:43:40.958Z,68.10
2019-04-14T19:46:29.424Z,68.50
2019-04-14T19:49:18.267Z,68.80
2019-04-14T19:51:47.997Z,69.20
2019-04-14T19:54:36.849Z,69.60
2019-04-14T19:57:18.402Z,69.80
2019-04-14T20:00:00.056Z,70.60
2019-04-14T20:02:41.500Z,70.50
2019-04-14T20:05:22.364Z,71.10
2019-04-14T20:08:03.929Z,71.70
2019-04-14T20:10:44.894Z,72.30
2019-04-14T20:13:14.294Z,72.00
2019-04-14T20:16:21.661Z,72.70
2019-04-14T20:19:46.671Z,72.90
2019-04-14T20:22:34.941Z,72.60
2019-04-14T20:25:42.513Z,72.90
2019-04-14T20:28:50.197Z,73.40
2019-04-14T20:34:48.520Z,74.60
2019-04-14T20:37:17.901Z,74.60
2019-04-14T20:40:26.780Z,74.60
2019-04-14T20:43:15.892Z,75.30
2019-04-14T20:46:04.758Z,75.40
2019-04-14T20:52:26.544Z,76.50
2019-04-14T20:55:15.131Z,76.50
2019-04-14T20:57:55.867Z,76.60
2019-04-14T21:00:36.959Z,76.90
2019-04-14T21:03:36.799Z,77.60
2019-04-14T21:06:37.213Z,77.60
2019-04-14T21:09:27.776Z,77.80
2019-04-14T21:12:30.657Z,78.30
2019-04-14T21:15:30.149Z,78.50
2019-04-14T21:18:30.029Z,79.10
2019-04-14T21:21:22.987Z,79.50
2019-04-14T21:24:23.513Z,79.50
2019-04-14T21:27:23.374Z,79.60
2019-04-14T21:30:12.685Z,79.50
2019-04-14T21:33:13.052Z,79.80
2019-04-14T21:36:12.869Z,80.60
2019-04-14T21:39:15.996Z,80.70
2019-04-14T21:41:57.168Z,80.80
2019-04-14T21:44:37.779Z,81.20
2019-04-14T21:47:18.997Z,81.70
2019-04-14T21:50:00.679Z,82.20
2019-04-14T21:52:43.517Z,82.50
2019-04-14T21:55:25.323Z,82.90
2019-04-14T21:58:28.031Z,83.40
2019-04-14T22:01:27.683Z,83.70
2019-04-14T22:04:27.773Z,84.20
2019-04-14T22:07:27.579Z,84.70
2019-04-14T22:13:00.346Z,85.20
2019-04-14T22:15:48.733Z,85.60
2019-04-14T22:18:37.889Z,85.90
2019-04-14T22:21:26.655Z,86.20
2019-04-14T22:24:15.105Z,86.40
2019-04-14T22:26:44.804Z,86.90
2019-04-14T22:29:33.722Z,87.40
2019-04-14T22:32:22.227Z,87.40
2019-04-14T22:35:10.812Z,88.10
2019-04-14T22:37:59.223Z,88.10
2019-04-14T22:40:28.598Z,88.40
2019-04-14T22:43:17.187Z,88.90
2019-04-14T22:46:05.990Z,89.50
2019-04-14T22:48:54.746Z,89.30
2019-04-14T22:51:43.211Z,89.80
2019-04-14T22:54:31.668Z,90.00
2019-04-14T22:57:11.573Z,90.10
2019-04-14T22:59:59.942Z,90.00
2019-04-14T23:02:55.440Z,89.60
2019-04-14T23:09:02.454Z,89.90
2019-04-14T23:12:09.865Z,90.30
2019-04-14T23:18:31.902Z,90.60
2019-04-14T23:21:39.295Z,90.90
2019-04-14T23:24:31.047Z,91.00
2019-04-14T23:27:19.418Z,91.20
2019-04-14T23:30:08.243Z,91.60
2019-04-14T23:32:56.683Z,91.80
2019-04-14T23:35:45.052Z,91.80
2019-04-14T23:38:33.490Z,92.00
2019-04-14T23:41:22.246Z,91.80
2019-04-14T23:44:10.634Z,91.90
2019-04-14T23:46:59.265Z,92.00
2019-04-14T23:52:37.076Z,92.20
2019-04-14T23:55:25.838Z,92.40
